sensor_id;sensor_type;location;lat;lon;timestamp;P1;durP1;ratioP1;P2;durP2;ratioP2
22679;SDS011;11507;44.858;10.374;2024-03-23T00:54:52;21.00;;;10.95;;
22679;SDS011;11507;44.858;10.374;2024-03-23T00:57:18;19.60;;;10.73;;
22679;SDS011;11507;44.858;10.374;2024-03-23T00:59:44;19.50;;;10.60;;
22679;SDS011;11507;44.858;10.374;2024-03-23T01:02:11;23.40;;;11.77;;
22679;SDS011;11507;44.858;10.374;2024-03-23T01:04:37;23.60;;;12.35;;
22679;SDS011;11507;44.858;10.374;2024-03-23T01:07:03;23.50;;;12.52;;
22679;SDS011;11507;44.858;10.374;2024-03-23T01:09:30;22.70;;;12.57;;
22679;SDS011;11507;44.858;10.374;2024-03-23T01:11:56;21.13;;;12.45;;
22679;SDS011;11507;44.858;10.374;2024-03-23T01:14:22;21.45;;;12.13;;
22679;SDS011;11507;44.858;10.374;2024-03-23T01:16:49;26.27;;;13.93;;
22679;SDS011;11507;44.858;10.374;2024-03-23T01:19:15;26.40;;;14.30;;
22679;SDS011;11507;44.858;10.374;2024-03-23T01:21:41;24.52;;;13.27;;
22679;SDS011;11507;44.858;10.374;2024-03-23T01:24:08;23.85;;;13.75;;
22679;SDS011;11507;44.858;10.374;2024-03-23T01:26:36;23.08;;;13.45;;
22679;SDS011;11507;44.858;10.374;2024-03-23T01:29:02;25.60;;;13.32;;
22679;SDS011;11507;44.858;10.374;2024-03-23T01:31:29;25.92;;;13.55;;
22679;SDS011;11507;44.858;10.374;2024-03-23T01:33:55;19.63;;;11.98;;
22679;SDS011;11507;44.858;10.374;2024-03-23T01:36:21;17.75;;;10.45;;
22679;SDS011;11507;44.858;10.374;2024-03-23T01:38:48;17.98;;;11.15;;
22679;SDS011;11507;44.858;10.374;2024-03-23T01:41:14;25.83;;;11.80;;
22679;SDS011;11507;44.858;10.374;2024-03-23T01:43:40;22.30;;;12.60;;
22679;SDS011;11507;44.858;10.374;2024-03-23T01:46:07;25.52;;;13.93;;
22679;SDS011;11507;44.858;10.374;2024-03-23T01:48:33;28.42;;;14.55;;
22679;SDS011;11507;44.858;10.374;2024-03-23T01:50:59;23.50;;;12.93;;
22679;SDS011;11507;44.858;10.374;2024-03-23T01:53:26;24.35;;;14.10;;
22679;SDS011;11507;44.858;10.374;2024-03-23T01:55:52;24.63;;;13.32;;
22679;SDS011;11507;44.858;10.374;2024-03-23T01:58:20;23.67;;;13.88;;
22679;SDS011;11507;44.858;10.374;2024-03-23T02:00:46;26.50;;;14.02;;
22679;SDS011;11507;44.858;10.374;2024-03-23T02:03:22;25.15;;;13.27;;
22679;SDS011;11507;44.858;10.374;2024-03-23T02:05:50;25.77;;;14.18;;
22679;SDS011;11507;44.858;10.374;2024-03-23T02:08:18;22.00;;;12.35;;
22679;SDS011;11507;44.858;10.374;2024-03-23T02:10:45;18.35;;;10.80;;
22679;SDS011;11507;44.858;10.374;2024-03-23T02:13:13;17.75;;;10.05;;
22679;SDS011;11507;44.858;10.374;2024-03-23T02:15:40;19.85;;;11.18;;
22679;SDS011;11507;44.858;10.374;2024-03-23T02:18:07;17.65;;;10.63;;
22679;SDS011;11507;44.858;10.374;2024-03-23T02:20:34;21.55;;;12.00;;
22679;SDS011;11507;44.858;10.374;2024-03-23T02:23:01;24.60;;;13.98;;
22679;SDS011;11507;44.858;10.374;2024-03-23T02:25:28;22.25;;;12.85;;
22679;SDS011;11507;44.858;10.374;2024-03-23T02:27:54;21.80;;;11.63;;
22679;SDS011;11507;44.858;10.374;2024-03-23T02:30:21;20.42;;;11.52;;
22679;SDS011;11507;44.858;10.374;2024-03-23T02:32:47;21.38;;;11.18;;
22679;SDS011;11507;44.858;10.374;2024-03-23T02:35:13;17.02;;;9.77;;
22679;SDS011;11507;44.858;10.374;2024-03-23T02:37:39;18.88;;;10.43;;
22679;SDS011;11507;44.858;10.374;2024-03-23T02:40:06;22.92;;;12.40;;
22679;SDS011;11507;44.858;10.374;2024-03-23T02:42:32;22.88;;;12.30;;
22679;SDS011;11507;44.858;10.374;2024-03-23T02:44:59;25.98;;;12.30;;
22679;SDS011;11507;44.858;10.374;2024-03-23T02:47:26;23.33;;;12.68;;
22679;SDS011;11507;44.858;10.374;2024-03-23T02:49:52;23.13;;;12.52;;
22679;SDS011;11507;44.858;10.374;2024-03-23T02:52:19;20.77;;;12.25;;
22679;SDS011;11507;44.858;10.374;2024-03-23T02:54:46;22.73;;;12.40;;
22679;SDS011;11507;44.858;10.374;2024-03-23T02:57:12;23.33;;;12.65;;
22679;SDS011;11507;44.858;10.374;2024-03-23T02:59:38;25.00;;;13.30;;
22679;SDS011;11507;44.858;10.374;2024-03-23T03:02:04;23.98;;;13.43;;
22679;SDS011;11507;44.858;10.374;2024-03-23T03:04:31;24.92;;;13.20;;
22679;SDS011;11507;44.858;10.374;2024-03-23T03:06:57;27.10;;;13.55;;
22679;SDS011;11507;44.858;10.374;2024-03-23T03:09:23;22.35;;;13.10;;
22679;SDS011;11507;44.858;10.374;2024-03-23T03:11:50;26.65;;;14.40;;
22679;SDS011;11507;44.858;10.374;2024-03-23T03:14:16;26.25;;;13.43;;
22679;SDS011;11507;44.858;10.374;2024-03-23T03:16:43;26.27;;;13.10;;
22679;SDS011;11507;44.858;10.374;2024-03-23T03:19:09;24.75;;;12.82;;
22679;SDS011;11507;44.858;10.374;2024-03-23T03:21:36;21.60;;;11.27;;
22679;SDS011;11507;44.858;10.374;2024-03-23T03:24:03;21.95;;;12.48;;
22679;SDS011;11507;44.858;10.374;2024-03-23T03:26:31;18.30;;;10.43;;
22679;SDS011;11507;44.858;10.374;2024-03-23T03:28:58;19.92;;;10.63;;
22679;SDS011;11507;44.858;10.374;2024-03-23T03:31:24;22.90;;;12.50;;
22679;SDS011;11507;44.858;10.374;2024-03-23T03:33:51;21.65;;;11.70;;
22679;SDS011;11507;44.858;10.374;2024-03-23T03:36:17;21.38;;;12.50;;
22679;SDS011;11507;44.858;10.374;2024-03-23T03:38:44;24.30;;;12.63;;
22679;SDS011;11507;44.858;10.374;2024-03-23T03:41:10;23.55;;;12.15;;
22679;SDS011;11507;44.858;10.374;2024-03-23T03:43:37;26.15;;;12.82;;
22679;SDS011;11507;44.858;10.374;2024-03-23T03:46:03;24.67;;;12.70;;
22679;SDS011;11507;44.858;10.374;2024-03-23T03:48:30;28.77;;;14.27;;
22679;SDS011;11507;44.858;10.374;2024-03-23T03:50:56;29.20;;;14.00;;
22679;SDS011;11507;44.858;10.374;2024-03-23T03:53:22;24.90;;;13.32;;
22679;SDS011;11507;44.858;10.374;2024-03-23T03:55:49;26.42;;;13.68;;
22679;SDS011;11507;44.858;10.374;2024-03-23T03:58:15;24.42;;;12.65;;
22679;SDS011;11507;44.858;10.374;2024-03-23T04:00:41;21.60;;;12.38;;
22679;SDS011;11507;44.858;10.374;2024-03-23T04:03:08;22.38;;;12.63;;
22679;SDS011;11507;44.858;10.374;2024-03-23T04:05:34;28.63;;;14.18;;
22679;SDS011;11507;44.858;10.374;2024-03-23T04:08:00;28.33;;;14.80;;
22679;SDS011;11507;44.858;10.374;2024-03-23T04:10:27;25.88;;;14.35;;
22679;SDS011;11507;44.858;10.374;2024-03-23T04:12:53;32.83;;;15.98;;
22679;SDS011;11507;44.858;10.374;2024-03-23T04:15:20;22.83;;;12.57;;
22679;SDS011;11507;44.858;10.374;2024-03-23T04:17:46;27.70;;;15.00;;
22679;SDS011;11507;44.858;10.374;2024-03-23T04:20:13;26.55;;;14.15;;
22679;SDS011;11507;44.858;10.374;2024-03-23T04:22:42;17.15;;;9.52;;
22679;SDS011;11507;44.858;10.374;2024-03-23T04:25:09;17.90;;;9.25;;
22679;SDS011;11507;44.858;10.374;2024-03-23T04:27:36;16.75;;;9.05;;
22679;SDS011;11507;44.858;10.374;2024-03-23T04:30:03;15.27;;;8.60;;
22679;SDS011;11507;44.858;10.374;2024-03-23T04:32:35;19.48;;;10.73;;
22679;SDS011;11507;44.858;10.374;2024-03-23T04:35:05;16.35;;;9.40;;
22679;SDS011;11507;44.858;10.374;2024-03-23T04:37:32;16.42;;;8.90;;
22679;SDS011;11507;44.858;10.374;2024-03-23T04:40:02;27.75;;;12.70;;
22679;SDS011;11507;44.858;10.374;2024-03-23T04:42:29;22.75;;;12.75;;
22679;SDS011;11507;44.858;10.374;2024-03-23T04:44:56;29.15;;;15.48;;
22679;SDS011;11507;44.858;10.374;2024-03-23T04:47:23;32.58;;;15.90;;
22679;SDS011;11507;44.858;10.374;2024-03-23T04:49:49;30.00;;;15.13;;
22679;SDS011;11507;44.858;10.374;2024-03-23T04:52:16;33.28;;;15.77;;
22679;SDS011;11507;44.858;10.374;2024-03-23T04:54:43;38.55;;;18.52;;
22679;SDS011;11507;44.858;10.374;2024-03-23T04:57:10;33.70;;;16.80;;
22679;SDS011;11507;44.858;10.374;2024-03-23T04:59:37;36.92;;;18.35;;
22679;SDS011;11507;44.858;10.374;2024-03-23T05:02:03;40.80;;;17.88;;
22679;SDS011;11507;44.858;10.374;2024-03-23T05:04:30;33.97;;;17.17;;
22679;SDS011;11507;44.858;10.374;2024-03-23T05:06:57;38.75;;;18.08;;
22679;SDS011;11507;44.858;10.374;2024-03-23T05:09:24;37.67;;;17.30;;
22679;SDS011;11507;44.858;10.374;2024-03-23T05:11:55;32.78;;;17.08;;
22679;SDS011;11507;44.858;10.374;2024-03-23T05:14:22;35.80;;;17.40;;
22679;SDS011;11507;44.858;10.374;2024-03-23T05:16:49;28.65;;;14.75;;
22679;SDS011;11507;44.858;10.374;2024-03-23T05:19:15;35.00;;;16.23;;
22679;SDS011;11507;44.858;10.374;2024-03-23T05:21:41;37.40;;;15.88;;
22679;SDS011;11507;44.858;10.374;2024-03-23T05:24:08;29.35;;;14.75;;
22679;SDS011;11507;44.858;10.374;2024-03-23T05:26:34;30.02;;;15.50;;
22679;SDS011;11507;44.858;10.374;2024-03-23T05:29:01;26.75;;;14.27;;
22679;SDS011;11507;44.858;10.374;2024-03-23T05:31:29;31.13;;;15.40;;
22679;SDS011;11507;44.858;10.374;2024-03-23T05:33:56;32.47;;;15.02;;
22679;SDS011;11507;44.858;10.374;2024-03-23T05:36:22;30.27;;;15.25;;
22679;SDS011;11507;44.858;10.374;2024-03-23T05:38:52;33.88;;;15.07;;
22679;SDS011;11507;44.858;10.374;2024-03-23T05:41:18;32.85;;;16.00;;
22679;SDS011;11507;44.858;10.374;2024-03-23T05:43:45;39.22;;;19.83;;
22679;SDS011;11507;44.858;10.374;2024-03-23T05:46:11;44.13;;;19.83;;
22679;SDS011;11507;44.858;10.374;2024-03-23T05:48:38;45.90;;;21.38;;
22679;SDS011;11507;44.858;10.374;2024-03-23T05:51:04;47.13;;;21.80;;
22679;SDS011;11507;44.858;10.374;2024-03-23T05:53:30;45.03;;;19.48;;
22679;SDS011;11507;44.858;10.374;2024-03-23T05:56:01;25.88;;;14.43;;
22679;SDS011;11507;44.858;10.374;2024-03-23T05:58:34;29.77;;;14.60;;
22679;SDS011;11507;44.858;10.374;2024-03-23T06:01:01;32.10;;;15.57;;
22679;SDS011;11507;44.858;10.374;2024-03-23T06:03:28;49.00;;;23.85;;
22679;SDS011;11507;44.858;10.374;2024-03-23T06:05:55;45.70;;;24.15;;
22679;SDS011;11507;44.858;10.374;2024-03-23T06:08:22;43.22;;;20.95;;
22679;SDS011;11507;44.858;10.374;2024-03-23T06:10:49;71.00;;;33.97;;
22679;SDS011;11507;44.858;10.374;2024-03-23T06:13:16;77.78;;;36.42;;
22679;SDS011;11507;44.858;10.374;2024-03-23T06:15:46;75.63;;;36.65;;
22679;SDS011;11507;44.858;10.374;2024-03-23T06:18:14;80.38;;;38.67;;
22679;SDS011;11507;44.858;10.374;2024-03-23T06:20:41;88.25;;;43.00;;
22679;SDS011;11507;44.858;10.374;2024-03-23T06:23:07;79.72;;;39.97;;
22679;SDS011;11507;44.858;10.374;2024-03-23T06:25:33;79.13;;;39.95;;
22679;SDS011;11507;44.858;10.374;2024-03-23T06:28:00;67.57;;;35.42;;
22679;SDS011;11507;44.858;10.374;2024-03-23T06:30:28;70.32;;;35.25;;
22679;SDS011;11507;44.858;10.374;2024-03-23T06:32:55;74.05;;;37.13;;
22679;SDS011;11507;44.858;10.374;2024-03-23T06:35:21;69.78;;;35.55;;
22679;SDS011;11507;44.858;10.374;2024-03-23T06:37:47;63.65;;;33.72;;
22679;SDS011;11507;44.858;10.374;2024-03-23T06:40:14;56.15;;;28.70;;
22679;SDS011;11507;44.858;10.374;2024-03-23T06:42:40;61.67;;;31.92;;
22679;SDS011;11507;44.858;10.374;2024-03-23T06:45:06;62.85;;;32.45;;
22679;SDS011;11507;44.858;10.374;2024-03-23T06:47:33;58.15;;;31.92;;
22679;SDS011;11507;44.858;10.374;2024-03-23T06:50:00;63.00;;;33.35;;
22679;SDS011;11507;44.858;10.374;2024-03-23T06:52:27;58.30;;;31.27;;
22679;SDS011;11507;44.858;10.374;2024-03-23T06:54:54;60.92;;;32.92;;
22679;SDS011;11507;44.858;10.374;2024-03-23T06:57:20;57.38;;;32.67;;
22679;SDS011;11507;44.858;10.374;2024-03-23T06:59:47;46.92;;;26.20;;
22679;SDS011;11507;44.858;10.374;2024-03-23T07:02:13;46.60;;;25.50;;
22679;SDS011;11507;44.858;10.374;2024-03-23T07:04:41;50.58;;;26.70;;
22679;SDS011;11507;44.858;10.374;2024-03-23T07:07:07;47.60;;;27.40;;
22679;SDS011;11507;44.858;10.374;2024-03-23T07:09:33;52.83;;;28.13;;
22679;SDS011;11507;44.858;10.374;2024-03-23T07:12:00;53.10;;;27.85;;
22679;SDS011;11507;44.858;10.374;2024-03-23T07:14:26;46.28;;;27.65;;
22679;SDS011;11507;44.858;10.374;2024-03-23T07:16:53;48.05;;;27.50;;
22679;SDS011;11507;44.858;10.374;2024-03-23T07:19:19;50.30;;;27.63;;
22679;SDS011;11507;44.858;10.374;2024-03-23T07:21:45;46.60;;;26.83;;
22679;SDS011;11507;44.858;10.374;2024-03-23T07:24:13;45.67;;;26.13;;
22679;SDS011;11507;44.858;10.374;2024-03-23T07:26:40;45.15;;;25.67;;
22679;SDS011;11507;44.858;10.374;2024-03-23T07:29:06;48.17;;;25.10;;
22679;SDS011;11507;44.858;10.374;2024-03-23T07:31:33;45.40;;;26.25;;
22679;SDS011;11507;44.858;10.374;2024-03-23T07:33:59;48.90;;;27.08;;
22679;SDS011;11507;44.858;10.374;2024-03-23T07:36:26;47.72;;;27.38;;
22679;SDS011;11507;44.858;10.374;2024-03-23T07:38:52;42.15;;;25.08;;
22679;SDS011;11507;44.858;10.374;2024-03-23T07:41:19;43.40;;;25.95;;
22679;SDS011;11507;44.858;10.374;2024-03-23T07:43:47;43.45;;;25.58;;
22679;SDS011;11507;44.858;10.374;2024-03-23T07:46:14;38.53;;;23.77;;
22679;SDS011;11507;44.858;10.374;2024-03-23T07:48:41;35.55;;;21.90;;
22679;SDS011;11507;44.858;10.374;2024-03-23T07:51:15;29.88;;;17.88;;
22679;SDS011;11507;44.858;10.374;2024-03-23T07:53:43;24.17;;;15.38;;
22679;SDS011;11507;44.858;10.374;2024-03-23T07:56:14;27.05;;;16.33;;
22679;SDS011;11507;44.858;10.374;2024-03-23T07:58:41;36.10;;;21.73;;
22679;SDS011;11507;44.858;10.374;2024-03-23T08:01:08;32.72;;;20.65;;
22679;SDS011;11507;44.858;10.374;2024-03-23T08:03:42;29.77;;;19.23;;
22679;SDS011;11507;44.858;10.374;2024-03-23T08:06:13;27.48;;;16.40;;
22679;SDS011;11507;44.858;10.374;2024-03-23T08:08:41;28.00;;;16.85;;
22679;SDS011;11507;44.858;10.374;2024-03-23T08:11:09;23.67;;;15.23;;
22679;SDS011;11507;44.858;10.374;2024-03-23T08:13:36;25.52;;;14.82;;
22679;SDS011;11507;44.858;10.374;2024-03-23T08:16:04;23.10;;;14.20;;
22679;SDS011;11507;44.858;10.374;2024-03-23T08:18:30;22.10;;;13.98;;
22679;SDS011;11507;44.858;10.374;2024-03-23T08:21:00;18.60;;;11.85;;
22679;SDS011;11507;44.858;10.374;2024-03-23T08:23:29;19.48;;;12.07;;
22679;SDS011;11507;44.858;10.374;2024-03-23T08:25:59;18.92;;;11.95;;
22679;SDS011;11507;44.858;10.374;2024-03-23T08:28:27;22.98;;;12.75;;
22679;SDS011;11507;44.858;10.374;2024-03-23T08:30:54;19.02;;;11.30;;
22679;SDS011;11507;44.858;10.374;2024-03-23T08:33:22;19.80;;;12.63;;
22679;SDS011;11507;44.858;10.374;2024-03-23T08:35:54;19.80;;;11.70;;
22679;SDS011;11507;44.858;10.374;2024-03-23T08:38:22;15.85;;;10.40;;
22679;SDS011;11507;44.858;10.374;2024-03-23T08:40:56;18.73;;;10.95;;
22679;SDS011;11507;44.858;10.374;2024-03-23T08:43:30;20.67;;;12.60;;
22679;SDS011;11507;44.858;10.374;2024-03-23T08:46:06;21.30;;;13.02;;
22679;SDS011;11507;44.858;10.374;2024-03-23T08:48:34;30.38;;;16.65;;
22679;SDS011;11507;44.858;10.374;2024-03-23T08:51:02;23.30;;;14.70;;
22679;SDS011;11507;44.858;10.374;2024-03-23T08:53:30;28.17;;;16.10;;
22679;SDS011;11507;44.858;10.374;2024-03-23T08:55:57;26.85;;;15.77;;
22679;SDS011;11507;44.858;10.374;2024-03-23T08:58:25;26.30;;;15.93;;
22679;SDS011;11507;44.858;10.374;2024-03-23T09:00:51;26.98;;;15.68;;
22679;SDS011;11507;44.858;10.374;2024-03-23T09:03:21;27.25;;;18.17;;
22679;SDS011;11507;44.858;10.374;2024-03-23T09:05:48;28.08;;;18.02;;
22679;SDS011;11507;44.858;10.374;2024-03-23T09:08:15;27.95;;;18.50;;
22679;SDS011;11507;44.858;10.374;2024-03-23T09:10:41;29.05;;;18.52;;
22679;SDS011;11507;44.858;10.374;2024-03-23T09:13:08;31.08;;;18.90;;
22679;SDS011;11507;44.858;10.374;2024-03-23T09:15:35;30.13;;;19.67;;
22679;SDS011;11507;44.858;10.374;2024-03-23T09:18:10;32.85;;;20.33;;
22679;SDS011;11507;44.858;10.374;2024-03-23T09:20:37;34.50;;;21.02;;
22679;SDS011;11507;44.858;10.374;2024-03-23T09:23:03;34.10;;;21.35;;
22679;SDS011;11507;44.858;10.374;2024-03-23T09:25:30;35.55;;;21.10;;
22679;SDS011;11507;44.858;10.374;2024-03-23T09:27:56;36.33;;;22.25;;
22679;SDS011;11507;44.858;10.374;2024-03-23T09:30:23;37.63;;;21.85;;
22679;SDS011;11507;44.858;10.374;2024-03-23T09:32:49;35.15;;;22.38;;
22679;SDS011;11507;44.858;10.374;2024-03-23T09:35:16;37.42;;;23.65;;
22679;SDS011;11507;44.858;10.374;2024-03-23T09:37:42;42.28;;;25.73;;
22679;SDS011;11507;44.858;10.374;2024-03-23T09:40:10;40.45;;;25.25;;
22679;SDS011;11507;44.858;10.374;2024-03-23T09:42:37;43.80;;;25.38;;
22679;SDS011;11507;44.858;10.374;2024-03-23T09:45:06;41.70;;;24.17;;
22679;SDS011;11507;44.858;10.374;2024-03-23T09:47:42;44.65;;;25.40;;
22679;SDS011;11507;44.858;10.374;2024-03-23T09:50:09;44.67;;;27.40;;
22679;SDS011;11507;44.858;10.374;2024-03-23T09:52:35;43.88;;;24.85;;
22679;SDS011;11507;44.858;10.374;2024-03-23T09:55:03;46.10;;;26.95;;
22679;SDS011;11507;44.858;10.374;2024-03-23T09:57:30;52.83;;;28.35;;
22679;SDS011;11507;44.858;10.374;2024-03-23T09:59:56;53.65;;;30.65;;
22679;SDS011;11507;44.858;10.374;2024-03-23T10:02:23;50.00;;;31.92;;
22679;SDS011;11507;44.858;10.374;2024-03-23T10:04:51;51.95;;;30.52;;
22679;SDS011;11507;44.858;10.374;2024-03-23T10:07:21;47.63;;;31.25;;
22679;SDS011;11507;44.858;10.374;2024-03-23T10:09:48;47.47;;;29.08;;
22679;SDS011;11507;44.858;10.374;2024-03-23T10:12:16;45.85;;;29.65;;
22679;SDS011;11507;44.858;10.374;2024-03-23T10:14:44;44.45;;;28.33;;
22679;SDS011;11507;44.858;10.374;2024-03-23T10:17:14;42.80;;;27.17;;
22679;SDS011;11507;44.858;10.374;2024-03-23T10:19:48;48.70;;;28.65;;
22679;SDS011;11507;44.858;10.374;2024-03-23T10:22:20;42.03;;;27.00;;
22679;SDS011;11507;44.858;10.374;2024-03-23T10:24:48;44.47;;;29.13;;
22679;SDS011;11507;44.858;10.374;2024-03-23T10:27:15;41.03;;;26.23;;
22679;SDS011;11507;44.858;10.374;2024-03-23T10:29:47;41.95;;;27.13;;
22679;SDS011;11507;44.858;10.374;2024-03-23T10:32:15;39.30;;;26.20;;
22679;SDS011;11507;44.858;10.374;2024-03-23T10:34:42;41.08;;;23.85;;
22679;SDS011;11507;44.858;10.374;2024-03-23T10:37:09;38.67;;;25.10;;
22679;SDS011;11507;44.858;10.374;2024-03-23T10:39:37;41.28;;;25.40;;
22679;SDS011;11507;44.858;10.374;2024-03-23T10:42:06;42.47;;;25.90;;
22679;SDS011;11507;44.858;10.374;2024-03-23T10:44:34;42.53;;;25.65;;
22679;SDS011;11507;44.858;10.374;2024-03-23T10:47:00;40.42;;;24.75;;
22679;SDS011;11507;44.858;10.374;2024-03-23T10:49:31;39.60;;;25.00;;
22679;SDS011;11507;44.858;10.374;2024-03-23T10:51:59;36.08;;;23.13;;
22679;SDS011;11507;44.858;10.374;2024-03-23T10:54:27;41.38;;;25.77;;
22679;SDS011;11507;44.858;10.374;2024-03-23T10:57:05;36.78;;;22.60;;
22679;SDS011;11507;44.858;10.374;2024-03-23T10:59:38;37.83;;;24.25;;
22679;SDS011;11507;44.858;10.374;2024-03-23T11:02:06;38.28;;;22.85;;
22679;SDS011;11507;44.858;10.374;2024-03-23T11:04:36;35.47;;;21.40;;
22679;SDS011;11507;44.858;10.374;2024-03-23T11:09:52;42.65;;;23.70;;
22679;SDS011;11507;44.858;10.374;2024-03-23T11:14:49;28.95;;;18.90;;
22679;SDS011;11507;44.858;10.374;2024-03-23T11:17:22;32.75;;;19.77;;
22679;SDS011;11507;44.858;10.374;2024-03-23T11:19:53;32.45;;;20.73;;
22679;SDS011;11507;44.858;10.374;2024-03-23T11:25:21;34.83;;;21.52;;
22679;SDS011;11507;44.858;10.374;2024-03-23T11:27:48;31.23;;;20.77;;
22679;SDS011;11507;44.858;10.374;2024-03-23T11:30:19;30.25;;;20.45;;
22679;SDS011;11507;44.858;10.374;2024-03-23T11:32:51;29.75;;;20.27;;
22679;SDS011;11507;44.858;10.374;2024-03-23T11:42:17;36.25;;;22.48;;
22679;SDS011;11507;44.858;10.374;2024-03-23T11:44:44;25.90;;;13.95;;
22679;SDS011;11507;44.858;10.374;2024-03-23T11:47:11;15.82;;;3.65;;
22679;SDS011;11507;44.858;10.374;2024-03-23T11:49:38;10.68;;;2.92;;
22679;SDS011;11507;44.858;10.374;2024-03-23T11:52:06;8.60;;;2.70;;
22679;SDS011;11507;44.858;10.374;2024-03-23T11:54:33;9.02;;;2.70;;
22679;SDS011;11507;44.858;10.374;2024-03-23T11:57:00;9.90;;;2.80;;
22679;SDS011;11507;44.858;10.374;2024-03-23T11:59:36;11.85;;;2.90;;
22679;SDS011;11507;44.858;10.374;2024-03-23T12:02:09;6.03;;;2.92;;
22679;SDS011;11507;44.858;10.374;2024-03-23T12:04:36;9.95;;;2.97;;
22679;SDS011;11507;44.858;10.374;2024-03-23T12:07:10;7.28;;;2.60;;
22679;SDS011;11507;44.858;10.374;2024-03-23T12:09:38;8.60;;;2.53;;
22679;SDS011;11507;44.858;10.374;2024-03-23T12:14:42;8.95;;;3.10;;
22679;SDS011;11507;44.858;10.374;2024-03-23T12:17:13;7.93;;;2.60;;
22679;SDS011;11507;44.858;10.374;2024-03-23T12:19:41;8.13;;;2.97;;
22679;SDS011;11507;44.858;10.374;2024-03-23T12:22:08;10.55;;;3.03;;
22679;SDS011;11507;44.858;10.374;2024-03-23T12:24:34;9.38;;;2.63;;
22679;SDS011;11507;44.858;10.374;2024-03-23T12:29:29;10.35;;;2.50;;
22679;SDS011;11507;44.858;10.374;2024-03-23T12:31:59;6.47;;;2.33;;
22679;SDS011;11507;44.858;10.374;2024-03-23T12:34:26;8.57;;;2.28;;
22679;SDS011;11507;44.858;10.374;2024-03-23T12:36:54;8.80;;;2.28;;
22679;SDS011;11507;44.858;10.374;2024-03-23T12:39:20;11.20;;;2.20;;
22679;SDS011;11507;44.858;10.374;2024-03-23T12:41:47;9.88;;;2.35;;
22679;SDS011;11507;44.858;10.374;2024-03-23T12:44:14;6.63;;;2.35;;
22679;SDS011;11507;44.858;10.374;2024-03-23T12:46:44;8.35;;;2.20;;
22679;SDS011;11507;44.858;10.374;2024-03-23T12:49:11;11.50;;;2.45;;
22679;SDS011;11507;44.858;10.374;2024-03-23T12:51:37;10.70;;;2.22;;
22679;SDS011;11507;44.858;10.374;2024-03-23T12:54:05;7.63;;;1.88;;
22679;SDS011;11507;44.858;10.374;2024-03-23T12:56:32;7.47;;;2.40;;
22679;SDS011;11507;44.858;10.374;2024-03-23T12:58:58;7.35;;;1.98;;
22679;SDS011;11507;44.858;10.374;2024-03-23T13:01:25;8.57;;;1.75;;
22679;SDS011;11507;44.858;10.374;2024-03-23T13:03:51;8.13;;;1.95;;
22679;SDS011;11507;44.858;10.374;2024-03-23T13:06:18;9.02;;;2.10;;
22679;SDS011;11507;44.858;10.374;2024-03-23T13:08:45;3.72;;;1.40;;
22679;SDS011;11507;44.858;10.374;2024-03-23T13:11:12;6.30;;;1.40;;
22679;SDS011;11507;44.858;10.374;2024-03-23T13:13:41;5.70;;;1.45;;
22679;SDS011;11507;44.858;10.374;2024-03-23T13:16:09;5.85;;;1.50;;
22679;SDS011;11507;44.858;10.374;2024-03-23T13:18:35;6.20;;;1.50;;
22679;SDS011;11507;44.858;10.374;2024-03-23T13:21:01;11.73;;;1.98;;
22679;SDS011;11507;44.858;10.374;2024-03-23T13:23:29;4.45;;;1.35;;
22679;SDS011;11507;44.858;10.374;2024-03-23T13:25:56;4.90;;;1.60;;
22679;SDS011;11507;44.858;10.374;2024-03-23T13:28:23;8.27;;;1.77;;
22679;SDS011;11507;44.858;10.374;2024-03-23T13:30:50;4.28;;;1.40;;
22679;SDS011;11507;44.858;10.374;2024-03-23T13:33:21;4.97;;;1.50;;
22679;SDS011;11507;44.858;10.374;2024-03-23T13:35:51;5.72;;;1.40;;
22679;SDS011;11507;44.858;10.374;2024-03-23T13:38:18;4.93;;;1.17;;
22679;SDS011;11507;44.858;10.374;2024-03-23T13:40:49;9.52;;;1.50;;
22679;SDS011;11507;44.858;10.374;2024-03-23T13:43:16;9.45;;;1.77;;
22679;SDS011;11507;44.858;10.374;2024-03-23T13:45:43;12.65;;;1.50;;
22679;SDS011;11507;44.858;10.374;2024-03-23T13:48:10;4.07;;;1.42;;
22679;SDS011;11507;44.858;10.374;2024-03-23T13:50:38;6.15;;;1.45;;
22679;SDS011;11507;44.858;10.374;2024-03-23T13:53:05;6.13;;;1.63;;
22679;SDS011;11507;44.858;10.374;2024-03-23T13:55:31;3.95;;;1.50;;
22679;SDS011;11507;44.858;10.374;2024-03-23T13:57:58;7.15;;;1.58;;
22679;SDS011;11507;44.858;10.374;2024-03-23T14:00:26;7.07;;;1.77;;
22679;SDS011;11507;44.858;10.374;2024-03-23T14:02:52;5.53;;;1.88;;
22679;SDS011;11507;44.858;10.374;2024-03-23T14:05:18;8.93;;;1.77;;
22679;SDS011;11507;44.858;10.374;2024-03-23T14:07:46;6.07;;;1.73;;
22679;SDS011;11507;44.858;10.374;2024-03-23T14:10:13;7.00;;;1.77;;
22679;SDS011;11507;44.858;10.374;2024-03-23T14:12:40;6.32;;;1.60;;
22679;SDS011;11507;44.858;10.374;2024-03-23T14:15:07;4.05;;;1.40;;
22679;SDS011;11507;44.858;10.374;2024-03-23T14:17:33;6.18;;;1.92;;
22679;SDS011;11507;44.858;10.374;2024-03-23T14:20:00;8.48;;;1.85;;
22679;SDS011;11507;44.858;10.374;2024-03-23T14:22:29;7.40;;;1.60;;
22679;SDS011;11507;44.858;10.374;2024-03-23T14:24:56;6.75;;;1.73;;
22679;SDS011;11507;44.858;10.374;2024-03-23T14:27:22;6.72;;;1.80;;
22679;SDS011;11507;44.858;10.374;2024-03-23T14:29:49;6.63;;;1.85;;
22679;SDS011;11507;44.858;10.374;2024-03-23T14:32:16;6.50;;;1.70;;
22679;SDS011;11507;44.858;10.374;2024-03-23T14:34:42;7.90;;;1.70;;
22679;SDS011;11507;44.858;10.374;2024-03-23T14:37:08;7.43;;;1.77;;
22679;SDS011;11507;44.858;10.374;2024-03-23T14:39:34;7.57;;;2.03;;
22679;SDS011;11507;44.858;10.374;2024-03-23T14:42:01;7.20;;;1.90;;
22679;SDS011;11507;44.858;10.374;2024-03-23T14:44:29;6.68;;;2.00;;
22679;SDS011;11507;44.858;10.374;2024-03-23T14:46:55;5.55;;;1.40;;
22679;SDS011;11507;44.858;10.374;2024-03-23T14:49:22;6.70;;;1.55;;
22679;SDS011;11507;44.858;10.374;2024-03-23T14:51:49;5.93;;;1.67;;
22679;SDS011;11507;44.858;10.374;2024-03-23T14:54:15;7.55;;;2.08;;
22679;SDS011;11507;44.858;10.374;2024-03-23T14:56:42;5.80;;;1.60;;
22679;SDS011;11507;44.858;10.374;2024-03-23T14:59:09;5.70;;;1.55;;
22679;SDS011;11507;44.858;10.374;2024-03-23T15:01:35;3.40;;;1.52;;
22679;SDS011;11507;44.858;10.374;2024-03-23T15:04:01;6.65;;;1.40;;
22679;SDS011;11507;44.858;10.374;2024-03-23T15:06:29;6.72;;;1.77;;
22679;SDS011;11507;44.858;10.374;2024-03-23T15:08:55;6.28;;;1.63;;
22679;SDS011;11507;44.858;10.374;2024-03-23T15:11:22;5.28;;;1.58;;
22679;SDS011;11507;44.858;10.374;2024-03-23T15:13:49;5.72;;;1.45;;
22679;SDS011;11507;44.858;10.374;2024-03-23T15:16:16;7.75;;;1.60;;
22679;SDS011;11507;44.858;10.374;2024-03-23T15:18:45;6.68;;;1.90;;
22679;SDS011;11507;44.858;10.374;2024-03-23T15:21:12;7.03;;;1.80;;
22679;SDS011;11507;44.858;10.374;2024-03-23T15:23:40;5.25;;;1.65;;
22679;SDS011;11507;44.858;10.374;2024-03-23T15:26:09;3.78;;;1.50;;
22679;SDS011;11507;44.858;10.374;2024-03-23T15:28:35;6.45;;;1.80;;
22679;SDS011;11507;44.858;10.374;2024-03-23T15:31:25;6.45;;;1.42;;